Time;durP1;ratioP1;P1;durP2;ratioP2;P2;SDS_P1;SDS_P2;PMS_P1;PMS_P2;Temp;Humidity;BMP_temperature;BMP_pressure;BME280_temperature;BME280_humidity;BME280_pressure;Samples;Min_cycle;Max_cycle;Signal;HPM_P1;HPM_P2
2022/04/19 00:00:28;;;;;;;5.57;3.30;;;;;;;6.66;69.55;101847.28;5048483;28;20270;-70
2022/04/19 00:02:53;;;;;;;5.60;3.50;;;;;;;6.68;70.46;101853.31;5050618;28;20185;-71
2022/04/19 00:05:19;;;;;;;4.37;3.33;;;;;;;6.68;70.70;101851.63;5049572;28;20213;-69
2022/04/19 00:07:44;;;;;;;5.33;2.87;;;;;;;6.61;70.25;101852.13;5049580;28;20724;-69
2022/04/19 00:10:11;;;;;;;7.00;3.33;;;;;;;6.53;70.77;101844.88;5048810;28;20189;-69
2022/04/19 00:12:36;;;;;;;4.53;3.20;;;;;;;6.45;70.66;101848.72;5049735;28;20639;-69
2022/04/19 00:15:03;;;;;;;6.40;3.10;;;;;;;6.46;71.00;101843.72;5050279;28;20209;-69
2022/04/19 00:17:28;;;;;;;6.73;3.73;;;;;;;6.36;71.82;101848.25;5049526;28;20268;-69
2022/04/19 00:19:54;;;;;;;4.77;3.63;;;;;;;6.42;71.62;101846.91;5048401;28;20238;-69
2022/04/19 00:22:19;;;;;;;6.70;4.00;;;;;;;6.38;71.77;101845.00;5049975;28;20281;-69
2022/04/19 00:24:44;;;;;;;4.23;3.53;;;;;;;6.28;71.79;101844.44;5050189;28;20205;-68
2022/04/19 00:27:10;;;;;;;6.00;3.67;;;;;;;6.24;72.06;101843.41;5050377;28;20192;-69
2022/04/19 00:29:35;;;;;;;5.10;3.70;;;;;;;6.14;72.30;101838.63;5049283;28;20225;-68
2022/04/19 00:32:01;;;;;;;5.53;3.07;;;;;;;6.14;71.50;101845.38;5050000;28;20213;-69
2022/04/19 00:34:27;;;;;;;5.77;3.50;;;;;;;6.14;72.40;101836.09;5049347;28;20194;-69
2022/04/19 00:36:52;;;;;;;5.37;4.00;;;;;;;6.15;72.02;101832.75;5049767;28;20189;-69
2022/04/19 00:39:17;;;;;;;6.33;3.40;;;;;;;6.12;72.49;101841.88;5048307;28;20611;-69
2022/04/19 00:41:43;;;;;;;5.40;3.60;;;;;;;6.17;72.30;101833.69;5049707;28;20193;-69
2022/04/19 00:44:08;;;;;;;4.60;3.47;;;;;;;6.07;73.10;101835.66;5048249;28;20561;-69
2022/04/19 00:46:34;;;;;;;4.93;3.70;;;;;;;6.12;72.48;101836.81;5062384;28;20214;-69
2022/04/19 00:48:59;;;;;;;4.13;3.27;;;;;;;6.08;72.06;101822.19;5031203;28;20213;-68
2022/04/19 00:51:27;;;;;;;4.67;3.80;;;;;;;6.07;72.36;101833.13;5049125;28;20185;-69
2022/04/19 00:53:52;;;;;;;5.70;3.60;;;;;;;6.06;72.40;101832.25;5048047;28;20616;-69
2022/04/19 00:56:18;;;;;;;4.83;3.70;;;;;;;6.13;72.55;101831.78;5048362;28;20218;-68
2022/04/19 00:58:44;;;;;;;5.23;3.90;;;;;;;6.12;72.52;101824.94;5049285;28;20678;-68
2022/04/19 01:01:09;;;;;;;4.03;3.30;;;;;;;6.12;72.33;101826.63;5064625;28;20665;-68
2022/04/19 01:03:37;;;;;;;4.93;3.40;;;;;;;6.07;72.44;101822.94;5064437;28;20201;-69
2022/04/19 01:06:09;;;;;;;4.00;3.60;;;;;;;6.02;72.33;101829.47;5064865;28;20202;-69
2022/04/19 01:08:36;;;;;;;3.67;3.30;;;;;;;5.97;72.41;101836.84;5030787;28;20304;-69
2022/04/19 01:13:56;;;;;;;5.67;3.60;;;;;;;5.89;72.98;101832.16;5047786;28;20208;-71
2022/04/19 01:16:24;;;;;;;5.47;3.40;;;;;;;5.84;73.50;101829.34;5058640;28;20309;-68
2022/04/19 01:18:50;;;;;;;4.50;3.90;;;;;;;5.83;72.96;101827.63;5047582;28;20212;-68
2022/04/19 01:21:15;;;;;;;5.93;3.70;;;;;;;5.73;73.25;101830.44;5047835;28;20659;-69
2022/04/19 01:23:41;;;;;;;7.77;3.90;;;;;;;5.72;73.56;101822.72;5047238;28;20201;-69
2022/04/19 01:26:07;;;;;;;3.83;3.40;;;;;;;5.67;73.51;101826.69;5047671;28;20216;-69
2022/04/19 01:28:37;;;;;;;4.93;3.50;;;;;;;5.51;73.73;101830.03;5046676;28;20222;-69
2022/04/19 01:31:05;;;;;;;4.97;3.70;;;;;;;5.53;74.47;101830.13;5046755;28;20189;-69
2022/04/19 01:33:39;;;;;;;4.13;3.50;;;;;;;5.52;74.14;101826.69;5047751;28;20181;-68
2022/04/19 01:36:09;;;;;;;4.87;3.50;;;;;;;5.42;74.27;101827.00;5047271;28;20212;-69
2022/04/19 01:38:36;;;;;;;6.00;3.30;;;;;;;5.44;73.90;101824.53;5047657;28;20186;-68
2022/04/19 01:41:02;;;;;;;4.77;3.50;;;;;;;5.29;74.60;101827.09;5047250;28;20315;-69
2022/04/19 01:43:47;;;;;;;6.33;4.07;;;;;;;5.26;74.44;101826.06;5048744;28;20670;-69
2022/04/19 01:46:17;;;;;;;4.70;3.50;;;;;;;5.28;74.72;101829.53;5047006;28;20234;-69
2022/04/19 01:48:42;;;;;;;5.93;3.40;;;;;;;5.19;74.88;101827.38;5060256;28;20209;-68
2022/04/19 01:51:08;;;;;;;4.60;3.43;;;;;;;5.20;74.43;101828.25;5051758;28;20556;-69
2022/04/19 01:53:33;;;;;;;5.53;3.70;;;;;;;5.18;74.75;101833.25;5051007;28;20182;-68
2022/04/19 01:55:59;;;;;;;5.40;3.83;;;;;;;5.15;75.12;101833.06;5051917;28;20209;-69
2022/04/19 01:58:45;;;;;;;5.53;3.47;;;;;;;5.18;75.28;101833.25;5048133;28;20197;-69
2022/04/19 02:01:12;;;;;;;4.23;3.43;;;;;;;5.14;75.19;101826.25;5034975;28;20280;-68
2022/04/19 02:03:39;;;;;;;5.27;3.70;;;;;;;5.13;75.29;101829.56;5040039;28;20190;-68
2022/04/19 02:06:11;;;;;;;5.00;3.53;;;;;;;5.14;75.77;101831.31;5058479;28;20206;-69
2022/04/19 02:08:38;;;;;;;5.60;3.33;;;;;;;5.11;75.77;101833.66;5050734;28;20722;-69
2022/04/19 02:11:05;;;;;;;6.40;3.87;;;;;;;5.01;76.40;101828.00;5034713;28;20311;-69
2022/04/19 02:13:31;;;;;;;5.87;3.73;;;;;;;5.01;75.92;101831.41;5051211;28;20694;-69
2022/04/19 02:16:17;;;;;;;7.70;3.87;;;;;;;4.95;76.08;101822.56;5050974;28;20213;-69
2022/04/19 02:18:43;;;;;;;9.77;3.80;;;;;;;4.90;76.71;101823.97;5050811;28;20272;-69
2022/04/19 02:21:08;;;;;;;7.87;4.23;;;;;;;4.91;76.50;101831.66;5049286;28;20322;-69
2022/04/19 02:23:35;;;;;;;7.53;4.47;;;;;;;4.89;76.58;101827.28;5050886;28;20712;-69
2022/04/19 02:26:01;;;;;;;6.90;3.73;;;;;;;4.80;76.86;101825.13;5049956;28;20226;-69
2022/04/19 02:28:27;;;;;;;8.93;4.63;;;;;;;4.79;77.03;101827.56;5049905;28;20235;-68
2022/04/19 02:31:11;;;;;;;7.07;4.17;;;;;;;4.75;77.14;101836.63;5049417;28;20327;-69
2022/04/19 02:33:41;;;;;;;5.30;3.63;;;;;;;4.71;76.70;101826.22;5049797;28;20204;-69
2022/04/19 02:36:07;;;;;;;5.97;4.20;;;;;;;4.72;76.54;101831.41;5049660;28;20423;-68
2022/04/19 02:38:35;;;;;;;6.63;3.90;;;;;;;4.71;77.10;101831.31;5052079;28;20186;-69
2022/04/19 02:41:00;;;;;;;5.43;3.90;;;;;;;4.68;76.98;101831.13;5049810;28;20739;-69
2022/04/19 02:43:26;;;;;;;6.73;3.90;;;;;;;4.71;76.88;101834.72;5065765;28;20189;-69
2022/04/19 02:45:54;;;;;;;6.40;3.93;;;;;;;4.60;77.89;101834.88;5049201;28;20244;-69
2022/04/19 02:48:24;;;;;;;4.27;3.53;;;;;;;4.54;77.79;101834.50;5047710;28;20754;-68
2022/04/19 02:50:52;;;;;;;8.03;4.27;;;;;;;4.58;76.59;101844.03;5056632;28;20189;-68
2022/04/19 02:53:17;;;;;;;5.57;3.80;;;;;;;4.58;76.88;101833.91;5049420;28;20247;-69
2022/04/19 02:55:43;;;;;;;4.70;3.57;;;;;;;4.54;77.41;101831.97;5049394;28;20217;-69
2022/04/19 02:58:08;;;;;;;6.30;3.67;;;;;;;4.52;76.60;101836.94;5050672;28;20762;-68
2022/04/19 03:00:37;;;;;;;7.97;4.97;;;;;;;4.56;76.54;101826.19;5050285;28;20591;-68
2022/04/19 03:03:03;;;;;;;9.17;5.07;;;;;;;4.52;76.68;101824.25;5064962;28;20189;-69
2022/04/19 03:05:29;;;;;;;10.20;5.97;;;;;;;4.47;77.28;101828.19;5052830;28;20213;-69
2022/04/19 03:07:56;;;;;;;13.10;5.93;;;;;;;4.48;77.51;101814.75;5049795;28;20769;-69
2022/04/19 03:10:21;;;;;;;11.50;5.83;;;;;;;4.50;77.57;101824.97;5048550;28;21045;-69
2022/04/19 03:12:51;;;;;;;7.97;4.23;;;;;;;4.47;77.52;101825.66;5049367;28;20188;-69
2022/04/19 03:15:20;;;;;;;5.70;4.13;;;;;;;4.43;77.20;101821.22;5029045;28;20215;-68
2022/04/19 03:17:45;;;;;;;7.73;4.50;;;;;;;4.44;77.61;101829.69;5049814;28;20190;-69
2022/04/19 03:20:12;;;;;;;7.17;4.13;;;;;;;4.37;77.43;101828.44;5049124;28;20204;-71
2022/04/19 03:28:10;;;;;;;4.17;3.40;;;;;;;4.17;77.19;101826.38;5052843;28;20218;-69
2022/04/19 03:30:37;;;;;;;5.23;3.40;;;;;;;4.18;77.07;101818.00;5047696;28;21628;-69
2022/04/19 03:33:02;;;;;;;6.67;3.90;;;;;;;4.15;76.77;101825.41;5065581;28;20196;-69
2022/04/19 03:35:28;;;;;;;5.43;3.37;;;;;;;4.03;76.92;101812.00;5047612;28;20210;-69
2022/04/19 03:37:53;;;;;;;6.03;3.67;;;;;;;3.99;77.06;101812.59;5053030;28;20220;-70
2022/04/19 03:40:19;;;;;;;4.53;3.77;;;;;;;4.04;76.91;101815.41;5051827;28;20260;-69
2022/04/19 03:42:44;;;;;;;5.50;4.00;;;;;;;3.98;77.41;101820.09;5048899;28;20258;-68
2022/04/19 03:45:10;;;;;;;5.47;3.70;;;;;;;4.02;77.45;101817.88;5047251;28;20783;-69
2022/04/19 03:47:37;;;;;;;6.57;3.77;;;;;;;3.94;78.00;101813.09;5051111;28;20187;-69
2022/04/19 03:50:04;;;;;;;4.63;3.73;;;;;;;3.95;77.73;101817.41;5047784;28;20264;-69
2022/04/19 03:52:30;;;;;;;6.90;3.83;;;;;;;3.84;78.10;101818.38;5049726;28;20678;-69
2022/04/19 03:54:57;;;;;;;4.97;3.87;;;;;;;3.81;78.29;101824.13;5047302;28;20252;-69
2022/04/19 03:57:25;;;;;;;6.27;4.03;;;;;;;3.81;78.62;101829.19;5031614;28;20189;-69
2022/04/19 03:59:51;;;;;;;5.77;3.87;;;;;;;3.79;78.86;101820.66;5055028;28;20565;-68
2022/04/19 04:02:21;;;;;;;6.37;4.20;;;;;;;3.81;79.08;101823.25;5055544;28;20232;-69
2022/04/19 04:04:47;;;;;;;6.83;4.00;;;;;;;3.79;78.81;101828.25;5047648;28;20300;-69
2022/04/19 04:07:13;;;;;;;5.23;3.57;;;;;;;3.75;79.48;101833.91;5060218;28;20285;-69
2022/04/19 04:09:39;;;;;;;5.63;3.70;;;;;;;3.81;78.87;101828.31;5048565;28;20581;-69
2022/04/19 04:12:11;;;;;;;5.63;3.80;;;;;;;3.81;79.41;101838.44;5031779;28;20769;-69
2022/04/19 04:14:39;;;;;;;6.77;4.00;;;;;;;3.81;79.74;101838.44;5048224;28;20231;-69
2022/04/19 04:17:05;;;;;;;8.60;5.00;;;;;;;3.78;78.75;101836.59;5048172;28;20186;-69
2022/04/19 04:19:31;;;;;;;6.50;4.03;;;;;;;3.73;78.96;101840.50;5047840;28;20235;-68
2022/04/19 04:21:57;;;;;;;8.27;4.70;;;;;;;3.82;79.16;101835.16;5055492;28;20284;-67
2022/04/19 04:24:23;;;;;;;9.17;4.67;;;;;;;3.75;79.54;101830.47;5065090;28;20225;-69
2022/04/19 04:26:48;;;;;;;7.83;4.27;;;;;;;3.82;78.67;101833.47;5051134;28;20205;-69
2022/04/19 04:29:16;;;;;;;7.23;4.23;;;;;;;3.88;79.12;101836.41;5056466;28;20217;-68
2022/04/19 04:31:43;;;;;;;9.50;4.90;;;;;;;3.91;78.38;101836.56;5048708;28;20259;-67
2022/04/19 04:34:14;;;;;;;9.40;4.10;;;;;;;3.95;79.31;101840.19;5053225;28;20277;-68
2022/04/19 04:36:39;;;;;;;7.13;3.47;;;;;;;3.99;78.69;101843.00;5030070;28;20288;-69
2022/04/19 04:39:05;;;;;;;4.00;3.43;;;;;;;4.07;78.50;101846.00;5030649;28;20650;-67
2022/04/19 04:41:40;;;;;;;5.93;3.10;;;;;;;4.12;78.70;101840.44;5053145;28;20559;-69
2022/04/19 04:44:06;;;;;;;6.47;3.73;;;;;;;4.14;78.40;101838.84;5055979;28;20189;-68
2022/04/19 04:52:00;;;;;;;5.50;3.60;;;;;;;4.39;77.74;101842.09;5035762;28;20602;-68
2022/04/19 04:54:26;;;;;;;6.43;3.50;;;;;;;4.50;77.53;101840.16;5046887;28;20189;-68
2022/04/19 04:56:52;;;;;;;4.07;3.10;;;;;;;4.57;76.89;101840.66;5051747;28;20332;-69
2022/04/19 04:59:18;;;;;;;4.23;3.27;;;;;;;4.66;76.75;101836.13;5054423;28;20185;-70
2022/04/19 05:01:43;;;;;;;4.27;3.50;;;;;;;4.78;75.77;101835.97;5050328;28;20525;-68
2022/04/19 05:04:09;;;;;;;4.10;3.40;;;;;;;4.87;75.14;101834.81;5046830;28;20182;-70
2022/04/19 05:06:34;;;;;;;6.47;3.20;;;;;;;5.00;74.83;101839.81;5047439;28;20288;-68
2022/04/19 05:08:59;;;;;;;5.67;3.03;;;;;;;5.09;73.44;101834.38;5047408;28;20226;-69
2022/04/19 05:11:25;;;;;;;6.13;3.43;;;;;;;5.18;73.56;101835.78;5051081;28;20285;-69
2022/04/19 05:13:51;;;;;;;4.40;3.10;;;;;;;5.30;72.83;101836.44;5056716;28;20651;-69
2022/04/19 05:16:17;;;;;;;4.63;3.50;;;;;;;5.41;72.88;101839.59;5048585;28;20218;-69
2022/04/19 05:18:42;;;;;;;4.90;3.00;;;;;;;5.57;71.75;101837.13;5064488;28;20821;-68
2022/04/19 05:21:08;;;;;;;4.83;3.40;;;;;;;5.73;70.84;101837.16;5067380;28;20193;-69
2022/04/19 05:23:34;;;;;;;7.03;4.13;;;;;;;5.86;69.76;101842.16;5041512;28;20279;-70
2022/04/19 05:25:59;;;;;;;8.77;4.00;;;;;;;5.98;68.85;101838.59;5049529;28;20359;-69
2022/04/19 05:28:25;;;;;;;5.07;3.27;;;;;;;6.07;69.72;101838.19;5031324;28;20244;-69
2022/04/19 05:30:54;;;;;;;3.90;3.10;;;;;;;6.24;68.94;101837.44;5080220;28;20192;-70
2022/04/19 05:33:20;;;;;;;4.67;3.27;;;;;;;6.38;66.87;101834.81;5068379;28;20201;-69
2022/04/19 05:35:45;;;;;;;4.70;3.10;;;;;;;6.46;65.67;101841.19;5068988;28;20212;-70
2022/04/19 05:38:11;;;;;;;6.27;3.50;;;;;;;6.59;64.71;101835.03;5067989;28;20193;-70
2022/04/19 05:40:41;;;;;;;5.03;3.63;;;;;;;6.76;63.11;101827.47;5054428;28;20225;-69
2022/04/19 05:43:08;;;;;;;4.47;2.50;;;;;;;6.88;63.89;101829.75;5068102;28;20185;-69
2022/04/19 05:45:34;;;;;;;3.90;2.67;;;;;;;6.93;62.94;101824.09;5057828;28;20212;-69
2022/04/19 05:48:00;;;;;;;4.60;2.37;;;;;;;7.02;63.29;101826.19;5067527;28;20274;-69
2022/04/19 05:50:26;;;;;;;3.67;2.40;;;;;;;7.20;62.68;101830.53;5067608;28;20200;-69
2022/04/19 05:52:52;;;;;;;4.67;2.40;;;;;;;7.31;61.54;101829.38;5067209;28;20185;-68
2022/04/19 05:55:17;;;;;;;3.63;2.43;;;;;;;7.32;61.77;101833.66;5067653;28;20205;-69
2022/04/19 05:57:43;;;;;;;3.40;2.33;;;;;;;7.50;60.52;101833.66;5057716;28;20571;-69
2022/04/19 06:00:09;;;;;;;3.87;2.47;;;;;;;7.65;59.80;101825.03;5047441;28;20185;-71
2022/04/19 06:05:32;;;;;;;3.17;2.60;;;;;;;7.52;59.13;101835.50;5047543;28;20686;-71
2022/04/19 06:07:57;;;;;;;2.37;2.00;;;;;;;7.54;59.57;101833.88;5047377;28;20208;-70
2022/04/19 06:10:23;;;;;;;4.00;2.30;;;;;;;7.68;59.46;101835.41;5047131;28;20178;-68
2022/04/19 06:12:50;;;;;;;4.57;2.63;;;;;;;7.93;57.96;101842.50;5047695;28;20243;-68
2022/04/19 06:15:16;;;;;;;4.70;2.40;;;;;;;8.05;58.58;101835.41;5047218;28;20198;-68
2022/04/19 06:17:42;;;;;;;2.70;2.37;;;;;;;8.09;58.12;101834.72;5046876;28;20198;-69
2022/04/19 06:20:26;;;;;;;3.90;2.40;;;;;;;8.12;57.70;101837.44;5048305;28;20269;-71
2022/04/19 06:22:52;;;;;;;3.17;2.67;;;;;;;8.21;56.77;101842.97;5048792;28;20277;-71
2022/04/19 06:25:19;;;;;;;3.33;2.43;;;;;;;8.27;56.38;101836.47;5046702;28;20283;-70
2022/04/19 06:27:44;;;;;;;3.20;2.40;;;;;;;8.50;55.50;101842.56;5063979;28;20651;-69
2022/04/19 06:30:10;;;;;;;3.77;2.50;;;;;;;8.80;56.84;101847.31;5063498;28;20210;-71
2022/04/19 06:32:36;;;;;;;4.80;2.57;;;;;;;9.08;55.65;101841.69;5046908;28;20178;-71
2022/04/19 06:35:03;;;;;;;2.77;2.47;;;;;;;9.39;53.33;101835.31;5069804;28;20217;-71
2022/04/19 06:37:30;;;;;;;3.93;2.50;;;;;;;9.67;53.01;101838.13;5030440;28;20202;-71
2022/04/19 06:40:09;;;;;;;3.10;2.37;;;;;;;9.87;50.96;101826.97;5047285;28;20186;-70
2022/04/19 06:42:35;;;;;;;4.53;2.50;;;;;;;9.91;49.92;101833.09;5035397;28;20748;-71
2022/04/19 06:45:18;;;;;;;3.43;2.60;;;;;;;10.07;50.49;101835.44;5051040;28;20256;-70
2022/04/19 06:48:02;;;;;;;3.13;2.57;;;;;;;10.13;51.38;101833.97;5050020;28;20224;-71
2022/04/19 06:50:37;;;;;;;2.70;2.17;;;;;;;10.11;48.90;101845.84;5049446;28;20243;-71
2022/04/19 06:53:07;;;;;;;3.57;2.20;;;;;;;10.06;50.27;101841.38;5042921;28;20193;-71
2022/04/19 06:55:56;;;;;;;2.87;2.40;;;;;;;9.85;48.79;101845.63;5049272;28;20233;-70
2022/04/19 06:58:22;;;;;;;3.23;2.20;;;;;;;9.91;48.92;101845.91;5049948;28;20205;-70
2022/04/19 07:00:48;;;;;;;4.47;2.03;;;;;;;9.98;48.90;101835.94;5053443;28;20189;-70
2022/04/19 07:03:14;;;;;;;2.70;2.00;;;;;;;10.04;49.99;101835.31;5049036;28;20758;-69
2022/04/19 07:06:12;;;;;;;3.17;2.20;;;;;;;9.98;50.74;101838.50;5049836;28;20714;-71
2022/04/19 07:08:38;;;;;;;4.17;2.00;;;;;;;10.29;49.22;101840.53;5061857;28;20212;-71
2022/04/19 07:11:03;;;;;;;4.27;1.80;;;;;;;10.49;47.39;101837.88;5055270;28;20201;-69
2022/04/19 07:13:47;;;;;;;4.73;2.17;;;;;;;10.64;45.42;101840.13;5051661;28;20330;-68
2022/04/19 07:16:39;;;;;;;2.90;1.40;;;;;;;10.80;45.94;101835.56;5050017;28;20217;-68
2022/04/19 07:19:04;;;;;;;2.13;1.30;;;;;;;11.19;44.61;101842.00;5052643;28;20178;-68
2022/04/19 07:26:55;;;;;;;2.67;1.30;;;;;;;11.60;42.71;101835.66;5061093;28;20224;-68
2022/04/19 07:29:21;;;;;;;1.60;1.30;;;;;;;11.87;43.06;101839.97;5050237;28;20277;-68
2022/04/19 07:31:51;;;;;;;4.60;2.03;;;;;;;12.26;42.18;101832.56;5045868;28;20286;-68
2022/04/19 07:34:37;;;;;;;2.17;1.80;;;;;;;12.40;46.02;101831.25;5050666;28;20193;-69
2022/04/19 07:37:02;;;;;;;4.70;2.13;;;;;;;12.58;44.63;101835.16;5051320;28;20235;-69
2022/04/19 07:39:29;;;;;;;2.70;1.80;;;;;;;12.60;43.83;101841.25;5051288;28;20177;-68
2022/04/19 07:41:57;;;;;;;2.33;1.80;;;;;;;12.89;43.38;101837.72;5049910;28;20577;-69
2022/04/19 07:44:23;;;;;;;2.23;1.70;;;;;;;13.17;41.76;101841.03;5050005;28;20194;-69
2022/04/19 07:46:50;;;;;;;4.00;1.70;;;;;;;13.47;43.36;101840.06;5052150;28;20569;-68
2022/04/19 07:49:15;;;;;;;5.80;1.70;;;;;;;13.48;42.48;101843.53;5056319;28;20848;-69
2022/04/19 07:51:41;;;;;;;2.60;1.60;;;;;;;13.84;43.62;101832.34;5032338;28;20225;-69
2022/04/19 07:54:06;;;;;;;5.63;1.90;;;;;;;13.74;42.37;101837.25;5048172;28;20301;-69
2022/04/19 07:56:32;;;;;;;2.43;1.83;;;;;;;14.16;41.67;101839.06;5049038;28;20206;-69
2022/04/19 07:58:58;;;;;;;2.63;1.60;;;;;;;14.29;41.27;101843.66;5032026;28;20197;-69
2022/04/19 08:01:24;;;;;;;3.70;1.93;;;;;;;14.48;39.31;101832.88;5048380;28;20193;-70
2022/04/19 08:03:50;;;;;;;4.23;2.10;;;;;;;14.64;40.65;101836.63;5045864;28;20274;-67
2022/04/19 08:06:16;;;;;;;2.77;1.80;;;;;;;14.57;39.59;101832.19;5048046;28;20960;-70
2022/04/19 08:08:43;;;;;;;2.00;1.50;;;;;;;14.64;39.03;101827.16;5055072;28;20239;-70
2022/04/19 08:11:09;;;;;;;3.87;1.90;;;;;;;14.74;39.20;101826.47;5052750;28;20196;-71
2022/04/19 08:13:34;;;;;;;1.90;1.60;;;;;;;15.19;38.21;101816.13;5052486;28;20233;-70
2022/04/19 08:16:00;;;;;;;2.57;1.77;;;;;;;15.56;39.37;101815.88;5052210;28;20212;-69
2022/04/19 08:18:26;;;;;;;3.63;2.20;;;;;;;15.43;38.63;101812.22;5050413;28;20277;-69
2022/04/19 08:20:53;;;;;;;2.63;1.87;;;;;;;15.31;38.61;101813.72;5051075;28;20252;-68
2022/04/19 08:23:19;;;;;;;2.40;2.00;;;;;;;15.58;38.19;101807.31;5047639;28;20193;-70
2022/04/19 08:25:51;;;;;;;3.07;2.00;;;;;;;15.54;39.21;101805.53;5050897;28;20210;-69
2022/04/19 08:28:17;;;;;;;4.70;2.30;;;;;;;15.54;38.94;101809.81;5047907;28;20204;-69
2022/04/19 08:30:42;;;;;;;3.93;2.50;;;;;;;15.21;39.58;101807.56;5047857;28;20285;-69
2022/04/19 08:33:11;;;;;;;3.10;2.57;;;;;;;15.53;39.71;101801.22;5050255;28;20770;-69
2022/04/19 08:35:36;;;;;;;3.07;1.97;;;;;;;15.98;39.13;101800.97;5041100;28;20328;-68
2022/04/19 08:38:01;;;;;;;5.03;2.43;;;;;;;16.27;39.24;101805.63;5052614;28;20204;-69
2022/04/19 08:40:30;;;;;;;4.80;2.40;;;;;;;16.37;38.01;101801.44;5046561;28;20269;-70
2022/04/19 08:42:58;;;;;;;3.87;2.50;;;;;;;16.47;38.11;101795.53;5058581;28;20599;-70
2022/04/19 08:45:23;;;;;;;5.60;3.13;;;;;;;16.80;39.63;101795.91;5048962;28;20217;-69
2022/04/19 08:47:49;;;;;;;4.83;2.70;;;;;;;16.92;37.96;101801.16;5051161;28;20190;-70
2022/04/19 08:50:20;;;;;;;4.07;2.83;;;;;;;17.01;38.72;101796.94;5051011;28;20279;-70
2022/04/19 08:52:47;;;;;;;4.10;2.90;;;;;;;17.29;38.08;101795.44;5047106;28;20190;-70
2022/04/19 08:57:58;;;;;;;3.27;2.73;;;;;;;17.63;38.30;101795.69;5049195;28;20190;-70
2022/04/19 09:00:24;;;;;;;5.53;3.00;;;;;;;17.57;37.91;101792.22;5046809;28;20192;-70
2022/04/19 09:02:51;;;;;;;4.83;2.80;;;;;;;17.82;36.30;101794.09;5049965;28;20188;-70
2022/04/19 09:05:21;;;;;;;4.03;2.73;;;;;;;17.92;39.00;101794.13;5050334;28;20704;-67
2022/04/19 09:07:48;;;;;;;4.50;2.87;;;;;;;18.25;36.83;101793.41;5050461;28;20217;-69
2022/04/19 09:10:16;;;;;;;3.40;2.80;;;;;;;18.41;36.86;101796.09;5048107;28;20222;-71
2022/04/19 09:13:02;;;;;;;3.77;2.20;;;;;;;18.66;36.18;101800.47;5048811;28;20327;-71
2022/04/19 09:15:38;;;;;;;4.70;3.07;;;;;;;18.86;36.93;101798.78;5046447;28;20205;-70
2022/04/19 09:18:13;;;;;;;4.00;2.60;;;;;;;18.81;35.30;101797.91;5048036;28;20177;-68
2022/04/19 09:20:39;;;;;;;4.73;2.73;;;;;;;19.01;35.23;101790.13;5047844;28;20193;-70
2022/04/19 09:23:06;;;;;;;3.67;2.90;;;;;;;19.16;36.25;101785.78;5051820;28;20214;-70
2022/04/19 09:25:32;;;;;;;3.03;2.30;;;;;;;18.96;36.40;101791.84;5052971;28;20221;-69
2022/04/19 09:27:58;;;;;;;5.37;2.77;;;;;;;19.06;36.48;101789.25;5049081;28;20185;-70
2022/04/19 09:30:26;;;;;;;3.13;2.60;;;;;;;19.43;34.51;101785.81;5047636;28;20585;-69
2022/04/19 09:33:14;;;;;;;2.87;2.30;;;;;;;19.16;37.04;101782.34;5048929;28;20189;-68
2022/04/19 09:35:45;;;;;;;2.73;2.10;;;;;;;18.75;36.24;101766.72;5049984;28;20732;-70
2022/04/19 09:38:12;;;;;;;3.40;2.13;;;;;;;19.08;36.59;101779.75;5047632;28;20190;-70
2022/04/19 09:40:48;;;;;;;3.43;2.33;;;;;;;19.61;35.02;101783.16;5048498;28;20247;-70
2022/04/19 09:43:24;;;;;;;3.63;2.53;;;;;;;19.59;35.69;101777.13;5047549;28;20661;-70
2022/04/19 09:46:03;;;;;;;4.23;2.40;;;;;;;19.77;34.62;101777.03;5048961;28;20267;-71
2022/04/19 09:48:31;;;;;;;5.37;2.63;;;;;;;19.88;34.34;101774.41;5048652;28;20643;-70
2022/04/19 09:51:02;;;;;;;2.80;2.17;;;;;;;20.19;33.83;101770.84;5048872;28;20243;-70
2022/04/19 09:53:30;;;;;;;3.07;2.20;;;;;;;20.19;35.51;101773.47;5049352;28;20572;-70
2022/04/19 09:55:57;;;;;;;3.80;2.70;;;;;;;20.42;36.03;101772.47;5048982;28;20629;-69
2022/04/19 09:58:23;;;;;;;4.13;2.07;;;;;;;20.18;34.93;101775.19;5047142;28;20269;-70
2022/04/19 10:00:49;;;;;;;2.50;2.30;;;;;;;20.37;35.87;101779.44;5048132;28;20255;-69
2022/04/19 10:08:48;;;;;;;3.33;1.90;;;;;;;20.61;35.94;101768.88;5048073;28;20198;-70
2022/04/19 10:11:15;;;;;;;2.67;1.70;;;;;;;20.92;32.78;101773.00;5049992;28;20200;-70
2022/04/19 10:13:41;;;;;;;3.47;1.63;;;;;;;20.95;34.57;101778.19;5052827;28;20186;-69
2022/04/19 10:16:14;;;;;;;2.43;1.70;;;;;;;20.83;32.78;101780.84;5050471;28;20205;-70
2022/04/19 10:18:44;;;;;;;3.73;2.00;;;;;;;20.91;32.64;101779.09;5052321;28;20177;-70
2022/04/19 10:21:15;;;;;;;1.97;1.77;;;;;;;20.72;34.37;101780.06;5052457;28;20204;-70
2022/04/19 10:23:42;;;;;;;3.27;2.00;;;;;;;20.83;33.26;101785.22;5032083;28;20251;-70
2022/04/19 10:26:15;;;;;;;5.53;2.20;;;;;;;21.39;34.89;101783.00;5032613;28;20202;-69
2022/04/19 10:28:41;;;;;;;2.03;1.87;;;;;;;21.14;33.62;101784.13;5031962;28;20233;-71
2022/04/19 10:31:07;;;;;;;2.87;1.73;;;;;;;21.51;32.39;101781.16;5032493;28;20183;-70
2022/04/19 10:33:39;;;;;;;2.03;1.63;;;;;;;21.51;33.03;101780.31;5041934;28;20198;-70
2022/04/19 10:36:14;;;;;;;1.93;1.70;;;;;;;21.72;33.12;101775.75;5052202;28;20597;-70
2022/04/19 10:38:40;;;;;;;3.57;1.87;;;;;;;21.38;32.26;101773.47;5052262;28;20186;-70
2022/04/19 10:41:06;;;;;;;2.43;1.80;;;;;;;21.79;32.86;101771.34;5052218;28;20210;-71
2022/04/19 10:43:31;;;;;;;4.00;2.10;;;;;;;21.84;33.36;101764.31;5050961;28;20918;-70
2022/04/19 10:46:15;;;;;;;2.77;1.60;;;;;;;21.67;31.33;101761.88;5050095;28;20225;-70
2022/04/19 10:49:23;;;;;;;2.33;1.77;;;;;;;21.41;33.01;101763.88;5051781;28;20224;-70
2022/04/19 10:52:01;;;;;;;2.30;2.00;;;;;;;21.81;31.95;101761.72;5009204;28;20187;-69
2022/04/19 10:55:01;;;;;;;2.37;1.83;;;;;;;21.72;32.12;101757.50;5030008;28;20198;-70
2022/04/19 11:00:31;;;;;;;4.80;2.10;;;;;;;21.91;33.02;101755.50;5049757;28;20189;-70
2022/04/19 11:03:01;;;;;;;2.27;2.07;;;;;;;21.87;32.58;101759.03;5051613;28;20181;-70
2022/04/19 11:05:46;;;;;;;1.73;1.60;;;;;;;21.85;32.57;101748.66;5051747;28;20229;-70
2022/04/19 11:08:26;;;;;;;3.17;1.70;;;;;;;22.26;31.04;101748.09;5050513;28;20654;-69
2022/04/19 11:10:54;;;;;;;5.27;2.00;;;;;;;21.98;30.15;101755.41;5051486;28;20185;-69
2022/04/19 11:13:20;;;;;;;2.30;2.10;;;;;;;22.00;32.03;101752.78;5051249;28;20273;-70
2022/04/19 11:16:00;;;;;;;2.10;1.83;;;;;;;22.04;32.63;101747.53;5050076;28;20296;-70
2022/04/19 11:18:30;;;;;;;2.60;1.90;;;;;;;22.38;31.40;101747.06;5051018;28;20251;-69
2022/04/19 11:21:03;;;;;;;1.77;1.43;;;;;;;22.18;30.59;101752.56;5050018;28;20185;-70
2022/04/19 11:23:41;;;;;;;2.40;1.67;;;;;;;22.12;29.99;101752.66;5050240;28;20667;-69
2022/04/19 11:26:08;;;;;;;2.43;1.60;;;;;;;21.98;30.83;101752.81;5050993;28;20671;-70
2022/04/19 11:28:34;;;;;;;2.10;1.30;;;;;;;22.09;29.82;101753.56;5051144;28;20225;-69
2022/04/19 11:31:00;;;;;;;2.73;1.60;;;;;;;22.50;29.60;101753.00;5050395;28;20323;-69
2022/04/19 11:33:28;;;;;;;1.80;1.70;;;;;;;22.52;28.95;101745.16;5049660;28;20288;-70
2022/04/19 11:36:15;;;;;;;1.97;1.60;;;;;;;22.42;30.24;101746.13;5050373;28;20702;-69
2022/04/19 11:38:43;;;;;;;2.13;1.77;;;;;;;22.39;29.91;101752.28;5050933;28;20185;-70
2022/04/19 11:46:45;;;;;;;4.37;2.10;;;;;;;22.08;28.87;101745.72;5050625;28;20307;-70
2022/04/19 11:49:25;;;;;;;2.90;2.00;;;;;;;22.12;28.54;101742.22;5050849;28;20210;-70
2022/04/19 11:51:52;;;;;;;1.90;1.70;;;;;;;22.39;27.78;101742.66;5058688;28;20201;-71
2022/04/19 11:54:20;;;;;;;5.07;2.07;;;;;;;21.99;28.38;101741.50;5070880;28;20717;-70
2022/04/19 11:56:49;;;;;;;3.13;2.50;;;;;;;21.87;27.18;101741.66;5070460;28;20634;-70
2022/04/19 11:59:15;;;;;;;1.93;1.73;;;;;;;21.79;28.18;101734.81;5053191;28;20196;-70
2022/04/19 12:01:47;;;;;;;3.93;2.37;;;;;;;22.01;28.27;101733.63;5050092;28;20848;-70
2022/04/19 12:04:13;;;;;;;1.73;1.60;;;;;;;22.32;27.32;101732.34;5049992;28;20620;-71
2022/04/19 12:06:39;;;;;;;2.37;1.87;;;;;;;22.41;27.19;101737.44;5050344;28;20671;-70
2022/04/19 12:09:04;;;;;;;3.63;1.90;;;;;;;22.42;27.29;101737.41;5049888;28;20217;-70
2022/04/19 12:11:30;;;;;;;3.33;2.20;;;;;;;22.58;28.13;101737.22;5050176;28;20189;-70
2022/04/19 12:13:57;;;;;;;3.23;1.67;;;;;;;22.27;27.35;101728.94;5049623;28;20544;-71